Time;durP1;ratioP1;P1;durP2;ratioP2;P2;SDS_P1;SDS_P2;PMS_P1;PMS_P2;Temp;Humidity;BMP_temperature;BMP_pressure;BME280_temperature;BME280_humidity;BME280_pressure;Samples;Min_cycle;Max_cycle;Signal;HPM_P1;HPM_P2
2023/04/07 00:01:01;;;;;;;10.00;5.30;;;;;;;6.28;nan;-23992.22;4992682;28;20215;-67
2023/04/07 00:03:26;;;;;;;9.13;6.07;;;;;;;5.65;nan;-23974.47;4993865;28;20169;-67
2023/04/07 00:05:52;;;;;;;9.83;5.63;;;;;;;5.67;nan;-23975.03;4994231;28;20212;-66
2023/04/07 00:08:17;;;;;;;18.20;5.80;;;;;;;5.61;nan;-23973.47;4993750;28;20204;-63
2023/04/07 00:10:42;;;;;;;9.30;5.20;;;;;;;5.94;nan;-23982.72;4993753;28;20227;-65
2023/04/07 00:13:08;;;;;;;9.50;5.50;;;;;;;5.75;nan;-23977.31;4993508;28;20210;-65
2023/04/07 00:15:33;;;;;;;8.60;5.27;;;;;;;5.50;nan;-23970.22;4993649;28;20180;-66
2023/04/07 00:17:59;;;;;;;7.67;5.40;;;;;;;5.93;nan;-23982.28;4993811;28;20177;-68
2023/04/07 00:20:24;;;;;;;9.20;4.90;;;;;;;5.87;nan;-23980.59;4993795;28;20259;-66
2023/04/07 00:22:50;;;;;;;6.97;4.80;;;;;;;5.34;nan;-23965.78;4993605;28;20215;-66
2023/04/07 00:25:15;;;;;;;10.00;5.13;;;;;;;5.86;nan;-23980.28;4993863;28;20197;-65
2023/04/07 00:27:40;;;;;;;8.70;5.63;;;;;;;5.57;nan;-23972.34;4993516;28;20259;-66
2023/04/07 00:30:07;;;;;;;9.80;5.73;;;;;;;5.61;nan;-23973.34;4993429;28;20184;-67
2023/04/07 00:32:32;;;;;;;10.07;5.87;;;;;;;5.59;nan;-23972.75;4992417;28;20189;-67
2023/04/07 00:34:57;;;;;;;9.30;5.40;;;;;;;5.55;nan;-23971.63;4994014;28;20694;-64
2023/04/07 00:37:24;;;;;;;9.53;5.73;;;;;;;5.26;nan;-23963.66;4993462;28;20188;-66
2023/04/07 00:39:51;;;;;;;10.47;5.33;;;;;;;5.12;nan;-23959.69;4993509;28;20180;-67
2023/04/07 00:42:17;;;;;;;11.00;5.50;;;;;;;5.25;nan;-23963.38;4993022;28;20292;-66
2023/04/07 00:44:42;;;;;;;9.03;5.50;;;;;;;5.57;nan;-23972.19;4993267;28;20219;-66
2023/04/07 00:47:08;;;;;;;10.47;6.17;;;;;;;5.72;nan;-23976.59;4993007;28;20217;-63
2023/04/07 00:49:33;;;;;;;10.50;5.43;;;;;;;5.22;nan;-23962.38;4993215;28;20659;-65
2023/04/07 00:52:00;;;;;;;10.50;6.27;;;;;;;5.24;nan;-23963.09;4993361;28;20171;-64
2023/04/07 00:54:25;;;;;;;11.27;6.37;;;;;;;4.94;nan;-23954.41;4993136;28;20654;-65
2023/04/07 00:56:54;;;;;;;12.40;6.73;;;;;;;5.27;nan;-23963.94;4992727;28;20182;-65
2023/04/07 00:59:20;;;;;;;8.93;5.50;;;;;;;5.17;nan;-23960.97;4997443;28;20381;-66
2023/04/07 01:02:06;;;;;;;8.93;5.23;;;;;;;5.38;nan;-23966.78;4993483;28;20200;-65
2023/04/07 01:04:37;;;;;;;8.30;4.97;;;;;;;5.37;nan;-23966.50;4993241;28;20266;-67
2023/04/07 01:07:10;;;;;;;11.00;5.47;;;;;;;5.28;nan;-23964.09;4992730;28;20172;-69
2023/04/07 01:10:02;;;;;;;13.00;5.20;;;;;;;5.48;nan;-23969.63;4992797;28;20750;-65
2023/04/07 01:12:51;;;;;;;10.30;5.50;;;;;;;5.49;nan;-23970.06;4993038;28;20245;-66
2023/04/07 01:15:20;;;;;;;8.57;5.20;;;;;;;5.49;nan;-23969.91;4992721;28;20263;-65
2023/04/07 01:17:51;;;;;;;9.77;4.83;;;;;;;5.55;nan;-23971.63;4993058;28;20240;-65
2023/04/07 01:20:21;;;;;;;9.60;5.43;;;;;;;5.36;nan;-23966.22;4993147;28;20175;-66
2023/04/07 01:22:56;;;;;;;9.10;5.57;;;;;;;5.16;nan;-23960.81;4993387;28;20270;-67
2023/04/07 01:25:48;;;;;;;7.43;4.90;;;;;;;5.44;nan;-23968.63;4991053;28;20196;-67
2023/04/07 01:28:14;;;;;;;7.73;4.73;;;;;;;5.59;nan;-23972.91;4992385;28;20177;-65
2023/04/07 01:30:42;;;;;;;18.77;5.10;;;;;;;5.27;nan;-23963.94;4992279;28;20180;-66
2023/04/07 01:33:10;;;;;;;8.07;5.17;;;;;;;5.19;nan;-23961.66;4992177;28;20251;-67
2023/04/07 01:35:36;;;;;;;9.67;5.23;;;;;;;5.32;nan;-23965.38;4992327;28;20636;-65
2023/04/07 01:38:03;;;;;;;9.37;5.57;;;;;;;4.90;nan;-23953.44;4991963;28;20176;-65
2023/04/07 01:40:31;;;;;;;9.47;5.27;;;;;;;5.09;nan;-23958.69;4992103;28;20252;-66
2023/04/07 01:42:58;;;;;;;9.73;5.77;;;;;;;5.25;nan;-23963.38;4991697;28;20172;-65
2023/04/07 01:45:25;;;;;;;6.97;4.90;;;;;;;5.54;nan;-23971.34;4991760;28;20212;-65
2023/04/07 01:47:53;;;;;;;7.47;4.53;;;;;;;5.35;nan;-23966.09;4990466;28;20362;-67
2023/04/07 01:50:20;;;;;;;9.77;5.60;;;;;;;5.33;nan;-23965.50;4991937;28;20173;-65
2023/04/07 01:52:46;;;;;;;9.70;5.70;;;;;;;5.27;nan;-23963.94;4991993;28;20678;-66
2023/04/07 01:55:11;;;;;;;9.33;5.50;;;;;;;5.23;nan;-23962.81;4992084;28;20597;-68
2023/04/07 01:57:37;;;;;;;10.23;5.13;;;;;;;4.86;nan;-23952.44;4991928;28;20656;-66
2023/04/07 02:00:03;;;;;;;18.47;4.83;;;;;;;5.31;nan;-23965.09;4992533;28;20169;-65
2023/04/07 02:02:29;;;;;;;9.23;5.30;;;;;;;5.14;nan;-23960.25;4996036;28;20177;-67
2023/04/07 02:04:57;;;;;;;13.43;5.70;;;;;;;5.11;nan;-23959.41;4982202;28;20204;-66
2023/04/07 02:07:47;;;;;;;10.97;5.07;;;;;;;5.25;nan;-23963.38;4981525;28;20211;-68
2023/04/07 02:10:16;;;;;;;7.83;4.53;;;;;;;5.11;nan;-23959.25;4982372;28;20632;-66
2023/04/07 02:12:45;;;;;;;9.83;5.13;;;;;;;4.79;nan;-23950.28;4977927;28;20276;-67
2023/04/07 02:15:12;;;;;;;12.50;6.47;;;;;;;4.95;nan;-23954.72;4989968;28;20562;-65
2023/04/07 02:17:40;;;;;;;8.73;5.50;;;;;;;4.86;nan;-23952.28;4979037;28;20220;-67
2023/04/07 02:20:11;;;;;;;8.80;4.80;;;;;;;5.08;nan;-23958.41;4989726;28;20267;-65
2023/04/07 02:22:38;;;;;;;7.67;4.50;;;;;;;4.76;nan;-23949.44;4978412;28;20177;-66
2023/04/07 02:25:30;;;;;;;12.50;5.87;;;;;;;5.04;nan;-23957.41;4989762;28;20209;-65
2023/04/07 02:27:57;;;;;;;9.30;4.87;;;;;;;4.76;nan;-23949.59;4994662;28;20192;-67
2023/04/07 02:30:24;;;;;;;6.10;4.03;;;;;;;4.95;nan;-23954.72;4987492;28;20180;-68
2023/04/07 02:32:49;;;;;;;10.93;5.60;;;;;;;5.04;nan;-23957.25;4979961;28;20185;-67
2023/04/07 02:35:15;;;;;;;6.80;4.53;;;;;;;4.73;nan;-23948.72;4987507;28;20560;-66
2023/04/07 02:37:41;;;;;;;5.40;4.00;;;;;;;4.66;nan;-23946.59;4978253;28;20615;-64
2023/04/07 02:40:08;;;;;;;7.97;4.60;;;;;;;5.01;nan;-23956.56;4989332;28;20211;-66
2023/04/07 02:42:34;;;;;;;12.93;5.93;;;;;;;5.01;nan;-23956.41;4978381;28;20182;-65
2023/04/07 02:44:59;;;;;;;9.90;4.63;;;;;;;5.03;nan;-23957.13;4988999;28;20212;-64
2023/04/07 02:47:25;;;;;;;5.93;4.23;;;;;;;4.86;nan;-23952.28;4978665;28;20221;-66
2023/04/07 02:49:50;;;;;;;8.70;5.33;;;;;;;4.94;nan;-23954.56;4987967;28;20283;-66
2023/04/07 02:52:16;;;;;;;9.33;4.47;;;;;;;4.87;nan;-23952.72;4980325;28;20185;-66
2023/04/07 02:54:42;;;;;;;6.83;5.17;;;;;;;4.62;nan;-23945.47;4986906;28;20338;-64
2023/04/07 02:57:07;;;;;;;11.03;6.50;;;;;;;4.88;nan;-23953.00;4981330;28;20558;-67
2023/04/07 02:59:32;;;;;;;7.73;5.03;;;;;;;4.75;nan;-23949.31;4985702;28;20641;-64
2023/04/07 03:01:58;;;;;;;9.87;5.33;;;;;;;4.72;nan;-23948.44;4982196;28;20192;-65
2023/04/07 03:04:23;;;;;;;8.73;4.93;;;;;;;4.63;nan;-23945.75;4988128;28;20565;-63
2023/04/07 03:06:49;;;;;;;9.63;5.27;;;;;;;4.85;nan;-23952.16;4984069;28;20189;-63
2023/04/07 03:09:14;;;;;;;8.73;5.17;;;;;;;4.99;nan;-23956.00;4984063;28;20715;-66
2023/04/07 03:11:43;;;;;;;6.93;5.07;;;;;;;4.98;nan;-23955.56;4983715;28;20177;-65
2023/04/07 03:14:08;;;;;;;7.70;5.07;;;;;;;4.96;nan;-23955.13;4983366;28;20190;-65
2023/04/07 03:16:34;;;;;;;9.30;5.30;;;;;;;4.49;nan;-23941.75;4983699;28;20276;-65
2023/04/07 03:18:59;;;;;;;7.27;4.67;;;;;;;4.75;nan;-23949.16;4983663;28;20183;-65
2023/04/07 03:21:25;;;;;;;6.93;4.40;;;;;;;4.89;nan;-23953.28;4985943;28;20189;-65
2023/04/07 03:23:50;;;;;;;9.20;5.87;;;;;;;4.63;nan;-23945.88;4982709;28;20181;-68
2023/04/07 03:26:16;;;;;;;8.47;4.87;;;;;;;4.86;nan;-23952.28;4987118;28;20687;-67
2023/04/07 03:28:41;;;;;;;9.57;5.50;;;;;;;4.85;nan;-23952.00;4994966;28;20565;-65
2023/04/07 03:31:07;;;;;;;8.47;5.33;;;;;;;4.85;nan;-23952.00;4993446;28;20189;-65
2023/04/07 03:33:32;;;;;;;7.93;5.10;;;;;;;4.68;nan;-23947.31;4995153;28;20196;-67
2023/04/07 03:35:58;;;;;;;6.23;4.63;;;;;;;4.58;nan;-23944.47;4994484;28;20267;-65
2023/04/07 03:38:32;;;;;;;7.73;5.43;;;;;;;4.93;nan;-23954.28;4994438;28;20194;-66
2023/04/07 03:40:57;;;;;;;12.57;5.40;;;;;;;4.96;nan;-23955.00;4994632;28;20176;-64
2023/04/07 03:43:23;;;;;;;6.63;4.17;;;;;;;4.60;nan;-23944.88;4994270;28;20176;-66
2023/04/07 03:45:48;;;;;;;18.53;5.20;;;;;;;4.59;nan;-23944.75;4993797;28;20206;-65
2023/04/07 03:48:14;;;;;;;12.20;5.83;;;;;;;4.96;nan;-23955.00;4995020;28;20640;-67
2023/04/07 03:50:40;;;;;;;7.17;4.53;;;;;;;4.50;nan;-23942.03;4994183;28;20208;-65
2023/04/07 03:53:06;;;;;;;9.50;5.57;;;;;;;5.03;nan;-23957.13;4994217;28;20180;-63
2023/04/07 03:55:34;;;;;;;8.97;5.17;;;;;;;5.02;nan;-23956.69;4994286;28;20243;-67
2023/04/07 03:58:00;;;;;;;10.13;5.50;;;;;;;5.00;nan;-23956.25;4993885;28;20702;-65
2023/04/07 04:00:25;;;;;;;11.43;5.50;;;;;;;5.07;nan;-23958.25;4993640;28;20169;-65
2023/04/07 04:02:51;;;;;;;9.13;5.37;;;;;;;4.99;nan;-23956.00;4991197;28;20568;-64
2023/04/07 04:05:17;;;;;;;9.30;6.00;;;;;;;4.68;nan;-23947.16;4985593;28;20208;-66
2023/04/07 04:07:42;;;;;;;9.20;5.87;;;;;;;4.89;nan;-23953.13;4998075;28;20235;-65
2023/04/07 04:10:08;;;;;;;8.73;5.60;;;;;;;5.01;nan;-23956.56;4994178;28;20180;-67
2023/04/07 04:12:33;;;;;;;9.33;5.43;;;;;;;4.99;nan;-23955.84;4994197;28;20275;-67
2023/04/07 04:14:59;;;;;;;9.97;5.90;;;;;;;5.00;nan;-23956.25;4994249;28;20176;-67
2023/04/07 04:17:25;;;;;;;13.47;4.90;;;;;;;5.01;nan;-23956.41;4992085;28;20216;-66
2023/04/07 04:19:50;;;;;;;13.40;5.83;;;;;;;5.17;nan;-23961.09;4984037;28;20185;-68
2023/04/07 04:22:16;;;;;;;8.67;5.23;;;;;;;4.73;nan;-23948.59;4981112;28;20192;-66
2023/04/07 04:24:42;;;;;;;8.03;5.07;;;;;;;4.92;nan;-23953.84;4993791;28;20180;-64
2023/04/07 04:27:07;;;;;;;10.07;5.17;;;;;;;5.43;nan;-23968.22;4993274;28;20212;-64
2023/04/07 04:29:33;;;;;;;11.90;6.03;;;;;;;5.61;nan;-23973.34;4993265;28;20609;-65
2023/04/07 04:31:58;;;;;;;12.03;5.63;;;;;;;5.37;nan;-23966.50;4993503;28;20172;-65
2023/04/07 04:34:24;;;;;;;9.00;5.07;;;;;;;5.57;nan;-23972.34;4993136;28;20176;-65
2023/04/07 04:36:49;;;;;;;11.93;5.87;;;;;;;5.77;nan;-23977.88;4993544;28;20183;-65
2023/04/07 04:39:15;;;;;;;9.27;5.10;;;;;;;5.37;nan;-23966.50;4986958;28;20181;-65
2023/04/07 04:41:40;;;;;;;8.27;5.63;;;;;;;5.83;nan;-23979.59;4984689;28;20185;-63
2023/04/07 04:44:06;;;;;;;12.90;6.83;;;;;;;5.59;nan;-23972.75;4975683;28;20178;-67
2023/04/07 04:46:31;;;;;;;10.03;5.37;;;;;;;5.88;nan;-23981.00;4993129;28;20224;-66
2023/04/07 04:48:57;;;;;;;14.87;6.23;;;;;;;5.85;nan;-23980.00;4992166;28;20188;-64
2023/04/07 04:51:22;;;;;;;10.13;5.97;;;;;;;6.04;nan;-23985.41;4983887;28;20196;-65
2023/04/07 04:53:48;;;;;;;9.50;5.97;;;;;;;6.09;nan;-23986.97;4979309;28;20276;-65
2023/04/07 04:56:13;;;;;;;10.17;6.33;;;;;;;5.74;nan;-23977.03;4980136;28;20185;-68
2023/04/07 04:58:41;;;;;;;12.33;6.73;;;;;;;6.05;nan;-23985.84;4991050;28;20185;-66
2023/04/07 05:01:06;;;;;;;11.40;6.40;;;;;;;6.37;nan;-23994.78;4985090;28;20176;-68
2023/04/07 05:03:31;;;;;;;9.77;6.33;;;;;;;6.39;nan;-23995.22;4976517;28;20323;-66
2023/04/07 05:05:57;;;;;;;11.03;6.20;;;;;;;6.46;nan;-23997.34;4985932;28;20247;-69
2023/04/07 05:08:22;;;;;;;10.27;5.83;;;;;;;6.47;nan;-23997.63;4976361;28;20185;-67
2023/04/07 05:10:48;;;;;;;11.20;6.33;;;;;;;6.47;nan;-23997.63;4989563;28;20185;-66
2023/04/07 05:13:14;;;;;;;10.83;5.80;;;;;;;6.66;nan;-24003.00;4974982;28;20177;-68
2023/04/07 05:15:40;;;;;;;9.50;6.10;;;;;;;7.01;nan;-24012.81;4985687;28;20275;-66
2023/04/07 05:18:06;;;;;;;9.13;5.70;;;;;;;7.18;nan;-24017.47;4975238;28;20181;-70
2023/04/07 05:20:31;;;;;;;8.00;5.03;;;;;;;7.32;nan;-24021.31;4992440;28;20585;-66
2023/04/07 05:22:57;;;;;;;11.87;6.00;;;;;;;7.51;nan;-24026.84;4992152;28;20287;-68
2023/04/07 05:25:22;;;;;;;8.97;5.07;;;;;;;7.45;nan;-24025.00;4985630;28;20607;-66
2023/04/07 05:27:47;;;;;;;10.60;6.03;;;;;;;7.74;nan;-24033.06;4977558;28;20191;-67
2023/04/07 05:30:13;;;;;;;9.10;5.07;;;;;;;7.96;nan;-24039.44;4982814;28;20263;-65
2023/04/07 05:32:39;;;;;;;7.93;5.53;;;;;;;8.04;nan;-24041.56;4978790;28;20173;-65
2023/04/07 05:35:05;;;;;;;8.33;5.10;;;;;;;7.75;nan;-24033.50;4982097;28;20212;-66
2023/04/07 05:37:30;;;;;;;8.70;5.20;;;;;;;7.96;nan;-24039.44;4979849;28;20181;-68
2023/04/07 05:39:55;;;;;;;8.07;5.00;;;;;;;8.52;nan;-24055.03;4980322;28;20189;-64
2023/04/07 05:42:21;;;;;;;13.87;4.90;;;;;;;8.24;nan;-24047.25;4980146;28;20178;-65
2023/04/07 05:44:46;;;;;;;11.60;5.33;;;;;;;8.03;nan;-24041.16;4981370;28;20204;-64
2023/04/07 05:47:12;;;;;;;6.00;4.37;;;;;;;8.22;nan;-24046.69;4983573;28;20661;-67
2023/04/07 05:49:39;;;;;;;7.70;5.20;;;;;;;8.55;nan;-24055.75;4984727;28;20199;-67
2023/04/07 05:52:05;;;;;;;11.70;4.90;;;;;;;8.75;nan;-24061.53;4992641;28;20627;-64
2023/04/07 05:54:30;;;;;;;9.33;5.33;;;;;;;8.61;nan;-24057.44;4992766;28;20185;-66
2023/04/07 05:56:56;;;;;;;9.43;5.10;;;;;;;8.86;nan;-24064.50;4984631;28;20185;-64
2023/04/07 05:59:21;;;;;;;8.83;4.87;;;;;;;8.40;nan;-24051.63;4983964;28;20279;-63
2023/04/07 06:01:47;;;;;;;9.10;5.20;;;;;;;8.27;nan;-24048.09;4984853;28;20178;-67
2023/04/07 06:04:13;;;;;;;10.43;5.70;;;;;;;8.99;nan;-24068.03;4983006;28;20667;-67
2023/04/07 06:06:38;;;;;;;8.37;5.57;;;;;;;8.80;nan;-24062.94;4990069;28;20208;-68
2023/04/07 06:09:04;;;;;;;12.27;5.63;;;;;;;8.91;nan;-24065.78;4994361;28;20208;-67
2023/04/07 06:11:29;;;;;;;7.23;4.87;;;;;;;9.41;nan;-24079.91;4989212;28;20193;-66
2023/04/07 06:13:55;;;;;;;10.77;5.23;;;;;;;9.78;nan;-24090.25;4982026;28;20180;-65
2023/04/07 06:16:20;;;;;;;8.93;5.63;;;;;;;9.53;nan;-24083.31;4986918;28;20205;-65
2023/04/07 06:18:46;;;;;;;8.90;5.50;;;;;;;9.64;nan;-24086.44;4981473;28;20259;-68
2023/04/07 06:21:11;;;;;;;7.20;4.97;;;;;;;9.39;nan;-24079.34;4987384;28;20670;-65
2023/04/07 06:23:37;;;;;;;8.73;5.33;;;;;;;9.81;nan;-24091.09;4980037;28;20181;-65
2023/04/07 06:26:02;;;;;;;8.18;4.82;;;;;;;9.82;nan;-24091.38;4988305;28;20227;-63
2023/04/07 06:28:28;;;;;;;8.27;4.80;;;;;;;10.25;nan;-24103.22;4978468;28;20283;-63
2023/04/07 06:30:53;;;;;;;9.07;5.45;;;;;;;9.91;nan;-24093.78;4989113;28;20181;-67
2023/04/07 06:33:22;;;;;;;10.35;5.38;;;;;;;10.13;nan;-24099.97;4977799;28;20239;-67
2023/04/07 06:35:48;;;;;;;11.32;5.10;;;;;;;9.84;nan;-24091.94;4988235;28;20634;-67
2023/04/07 06:38:13;;;;;;;11.27;5.47;;;;;;;9.55;nan;-24083.75;4977544;28;20260;-67
2023/04/07 06:40:39;;;;;;;8.63;5.65;;;;;;;9.81;nan;-24090.94;4988555;28;20184;-65
2023/04/07 06:43:05;;;;;;;7.07;5.03;;;;;;;9.70;nan;-24087.97;4978254;28;20177;-67
2023/04/07 06:45:30;;;;;;;13.73;5.82;;;;;;;10.06;nan;-24098.16;4988482;28;20303;-68
2023/04/07 06:47:55;;;;;;;11.57;5.72;;;;;;;9.84;nan;-24091.78;4978751;28;20224;-67
2023/04/07 06:50:21;;;;;;;7.38;5.22;;;;;;;10.00;nan;-24096.44;4987729;28;20239;-66
2023/04/07 06:52:46;;;;;;;9.73;5.78;;;;;;;10.31;nan;-24104.94;4980539;28;20649;-66
2023/04/07 06:55:12;;;;;;;8.73;5.28;;;;;;;10.76;nan;-24117.47;4985937;28;20189;-64
2023/04/07 06:57:37;;;;;;;7.97;5.00;;;;;;;10.74;nan;-24116.91;4983595;28;20191;-67
2023/04/07 07:00:06;;;;;;;8.50;4.72;;;;;;;10.75;nan;-24117.19;4983302;28;20219;-67
2023/04/07 07:02:32;;;;;;;11.07;4.93;;;;;;;10.23;nan;-24102.66;4984180;28;20200;-69
2023/04/07 07:04:57;;;;;;;7.57;4.70;;;;;;;10.10;nan;-24099.13;4981559;28;20678;-68
2023/04/07 07:07:24;;;;;;;8.13;4.60;;;;;;;10.03;nan;-24097.16;4983534;28;20193;-63
2023/04/07 07:09:50;;;;;;;7.80;5.00;;;;;;;10.50;nan;-24110.44;4983472;28;20620;-67
2023/04/07 07:12:16;;;;;;;9.35;4.45;;;;;;;10.41;nan;-24107.88;4983969;28;20185;-67
2023/04/07 07:14:42;;;;;;;6.15;4.50;;;;;;;10.35;nan;-24106.19;4986967;28;20586;-64
2023/04/07 07:17:08;;;;;;;9.40;4.72;;;;;;;10.72;nan;-24116.50;4984081;28;20177;-64
2023/04/07 07:19:33;;;;;;;7.32;4.47;;;;;;;10.66;nan;-24114.66;4983527;28;20180;-65
2023/04/07 07:22:00;;;;;;;6.75;4.32;;;;;;;9.81;nan;-24091.09;4983812;28;20181;-65
2023/04/07 07:24:25;;;;;;;9.80;5.05;;;;;;;10.53;nan;-24111.28;4983142;28;20248;-66
2023/04/07 07:26:51;;;;;;;6.70;4.32;;;;;;;10.01;nan;-24096.72;4983921;28;20216;-64
2023/04/07 07:29:16;;;;;;;8.13;4.63;;;;;;;10.50;nan;-24110.28;4982776;28;20180;-64
2023/04/07 07:31:42;;;;;;;5.97;4.03;;;;;;;10.30;nan;-24104.66;4984415;28;20228;-65
2023/04/07 07:34:07;;;;;;;7.13;4.38;;;;;;;10.39;nan;-24107.31;4981477;28;20177;-68
2023/04/07 07:36:33;;;;;;;6.00;4.25;;;;;;;10.37;nan;-24106.75;4985722;28;20177;-66
2023/04/07 07:38:58;;;;;;;7.03;4.30;;;;;;;10.27;nan;-24103.94;4981007;28;20183;-64
2023/04/07 07:41:25;;;;;;;7.18;4.82;;;;;;;10.74;nan;-24116.91;4985167;28;20728;-67
2023/04/07 07:43:50;;;;;;;7.53;4.38;;;;;;;11.01;nan;-24124.69;4980478;28;20212;-67
2023/04/07 07:46:15;;;;;;;11.52;5.32;;;;;;;10.84;nan;-24119.88;4985365;28;20295;-66
2023/04/07 07:48:41;;;;;;;8.50;4.90;;;;;;;10.84;nan;-24119.88;4979540;28;20246;-67
2023/04/07 07:51:06;;;;;;;8.18;4.88;;;;;;;10.61;nan;-24113.41;4990661;28;20188;-66
2023/04/07 07:53:32;;;;;;;6.85;4.38;;;;;;;10.82;nan;-24119.19;4978117;28;20255;-67
2023/04/07 07:55:57;;;;;;;7.07;4.80;;;;;;;10.55;nan;-24111.84;4992254;28;20629;-69
2023/04/07 07:58:23;;;;;;;17.17;5.55;;;;;;;10.76;nan;-24117.63;4977118;28;20212;-68
2023/04/07 08:00:48;;;;;;;7.95;5.10;;;;;;;11.15;nan;-24128.47;4987667;28;20213;-66
2023/04/07 08:03:14;;;;;;;8.00;5.07;;;;;;;11.16;nan;-24128.75;4976669;28;20181;-67
2023/04/07 08:05:39;;;;;;;7.35;4.45;;;;;;;10.89;nan;-24121.28;4987740;28;20295;-65
2023/04/07 08:08:06;;;;;;;8.05;4.65;;;;;;;11.06;nan;-24125.94;4976851;28;20268;-64
2023/04/07 08:10:31;;;;;;;6.28;4.43;;;;;;;10.85;nan;-24120.16;4986853;28;20188;-67
2023/04/07 08:12:57;;;;;;;10.43;4.78;;;;;;;11.20;nan;-24129.88;4977957;28;20182;-67
2023/04/07 08:15:22;;;;;;;8.73;4.63;;;;;;;11.16;nan;-24128.75;4986957;28;20279;-64
2023/04/07 08:17:48;;;;;;;8.07;4.72;;;;;;;10.88;nan;-24120.88;4982159;28;20185;-64
2023/04/07 08:20:13;;;;;;;8.75;5.18;;;;;;;10.51;nan;-24110.56;4984839;28;20177;-67
2023/04/07 08:22:39;;;;;;;7.82;4.82;;;;;;;10.87;nan;-24120.72;4980647;28;20185;-67
2023/04/07 08:25:04;;;;;;;8.02;4.63;;;;;;;10.78;nan;-24118.19;4983061;28;20247;-64
2023/04/07 08:27:30;;;;;;;9.50;5.20;;;;;;;11.06;nan;-24125.94;4981356;28;20184;-64
2023/04/07 08:30:05;;;;;;;8.57;5.10;;;;;;;11.17;nan;-24128.91;4982168;28;20261;-65
2023/04/07 08:32:35;;;;;;;10.95;4.90;;;;;;;11.42;nan;-24136.09;4981042;28;20575;-67
2023/04/07 08:35:01;;;;;;;7.65;4.63;;;;;;;11.30;nan;-24132.72;4982934;28;20185;-65
2023/04/07 08:37:26;;;;;;;7.70;4.53;;;;;;;11.59;nan;-24140.59;4981000;28;20182;-68
2023/04/07 08:39:51;;;;;;;6.00;4.13;;;;;;;11.21;nan;-24130.19;4982163;28;20530;-66
2023/04/07 08:42:19;;;;;;;7.95;4.60;;;;;;;10.95;nan;-24123.00;4982673;28;20186;-65
2023/04/07 08:44:47;;;;;;;6.28;4.35;;;;;;;11.10;nan;-24126.94;4980302;28;20665;-65
2023/04/07 08:47:16;;;;;;;6.70;4.15;;;;;;;11.86;nan;-24148.22;4982018;28;20324;-70
2023/04/07 08:49:45;;;;;;;7.10;4.25;;;;;;;11.81;nan;-24146.81;4982682;28;20184;-68
2023/04/07 08:52:14;;;;;;;9.20;4.25;;;;;;;11.30;nan;-24132.56;4984457;28;20242;-66
2023/04/07 08:54:40;;;;;;;6.82;4.60;;;;;;;10.36;nan;-24106.47;4988476;28;20181;-65
2023/04/07 08:57:07;;;;;;;7.32;4.38;;;;;;;11.12;nan;-24127.63;4982423;28;20181;-67
2023/04/07 08:59:34;;;;;;;5.85;4.07;;;;;;;11.24;nan;-24130.88;4981283;28;20192;-65
2023/04/07 09:01:59;;;;;;;7.43;4.15;;;;;;;11.23;nan;-24130.75;4981700;28;20264;-66
2023/04/07 09:04:26;;;;;;;7.50;4.70;;;;;;;11.48;nan;-24137.78;4980775;28;20686;-64
2023/04/07 09:06:51;;;;;;;7.93;4.55;;;;;;;11.34;nan;-24133.84;4982110;28;20213;-65
2023/04/07 09:09:17;;;;;;;7.65;4.35;;;;;;;11.11;nan;-24127.34;4980688;28;20179;-66
2023/04/07 09:11:42;;;;;;;6.57;4.05;;;;;;;10.16;nan;-24100.97;4982721;28;20173;-67
2023/04/07 09:14:08;;;;;;;7.03;4.43;;;;;;;11.29;nan;-24132.44;4979793;28;20272;-64
2023/04/07 09:16:34;;;;;;;7.28;4.45;;;;;;;11.63;nan;-24141.72;4983450;28;20244;-66
2023/04/07 09:18:59;;;;;;;7.80;4.07;;;;;;;11.84;nan;-24147.66;4982725;28;20177;-66
2023/04/07 09:21:26;;;;;;;7.25;3.78;;;;;;;10.87;nan;-24120.59;4982452;28;20623;-66
2023/04/07 09:23:51;;;;;;;8.05;4.68;;;;;;;10.67;nan;-24114.94;4979168;28;20204;-67
2023/04/07 09:26:16;;;;;;;6.85;4.70;;;;;;;10.76;nan;-24117.63;4983785;28;20247;-65
2023/04/07 09:28:44;;;;;;;7.15;4.13;;;;;;;11.02;nan;-24124.97;4977786;28;20180;-66
2023/04/07 09:31:09;;;;;;;6.53;4.03;;;;;;;11.14;nan;-24128.06;4984415;28;20216;-66
2023/04/07 09:33:35;;;;;;;6.00;3.60;;;;;;;11.35;nan;-24133.97;4976607;28;20211;-67
2023/04/07 09:36:02;;;;;;;7.07;3.85;;;;;;;11.50;nan;-24138.34;4985597;28;20219;-67
2023/04/07 09:38:36;;;;;;;6.18;4.00;;;;;;;11.46;nan;-24137.22;4975953;28;20183;-67
2023/04/07 09:41:09;;;;;;;5.22;3.70;;;;;;;11.50;nan;-24138.34;4985455;28;20196;-66
2023/04/07 09:43:44;;;;;;;7.20;4.40;;;;;;;11.69;nan;-24143.41;4976649;28;20233;-67
2023/04/07 09:46:10;;;;;;;7.13;3.80;;;;;;;11.80;nan;-24146.53;4980981;28;20263;-68
2023/04/07 09:48:37;;;;;;;5.55;3.95;;;;;;;11.76;nan;-24145.53;4991655;28;20176;-66
2023/04/07 09:51:13;;;;;;;6.00;3.72;;;;;;;11.75;nan;-24145.25;4984684;28;20667;-66
2023/04/07 09:53:48;;;;;;;5.68;3.90;;;;;;;11.89;nan;-24149.19;4976817;28;20181;-65
2023/04/07 09:56:21;;;;;;;7.35;4.30;;;;;;;12.37;nan;-24162.44;4983809;28;20287;-66
2023/04/07 09:58:47;;;;;;;6.30;4.22;;;;;;;12.62;nan;-24169.31;4977489;28;20177;-64
2023/04/07 10:01:17;;;;;;;7.93;4.20;;;;;;;12.90;nan;-24177.06;4983381;28;20570;-67
2023/04/07 10:03:45;;;;;;;6.30;4.28;;;;;;;12.62;nan;-24169.31;4977792;28;20705;-67
2023/04/07 10:06:11;;;;;;;6.53;3.80;;;;;;;12.55;nan;-24167.34;4983435;28;20641;-63
2023/04/07 10:08:39;;;;;;;6.90;3.97;;;;;;;12.79;nan;-24174.25;4976456;28;20188;-64
2023/04/07 10:11:05;;;;;;;5.88;4.32;;;;;;;12.71;nan;-24172.00;4982207;28;20188;-67
2023/04/07 10:13:33;;;;;;;6.90;3.90;;;;;;;12.77;nan;-24173.53;4975874;28;20278;-66
2023/04/07 10:16:01;;;;;;;8.40;4.22;;;;;;;13.03;nan;-24180.84;4983980;28;20231;-65
2023/04/07 10:18:31;;;;;;;6.90;4.18;;;;;;;13.17;nan;-24184.78;4973836;28;20181;-64
2023/04/07 10:21:00;;;;;;;8.27;4.60;;;;;;;13.05;nan;-24181.28;4988771;28;20207;-64
2023/04/07 10:23:48;;;;;;;6.15;4.10;;;;;;;13.70;nan;-24199.41;4975994;28;20170;-65
2023/04/07 10:26:20;;;;;;;8.07;4.57;;;;;;;14.02;nan;-24208.38;4983513;28;20200;-64
2023/04/07 10:28:52;;;;;;;7.35;4.40;;;;;;;13.89;nan;-24204.59;4978429;28;20308;-68
2023/04/07 10:31:19;;;;;;;6.97;4.03;;;;;;;13.64;nan;-24197.72;4980707;28;20192;-67
2023/04/07 10:33:52;;;;;;;6.50;4.43;;;;;;;13.96;nan;-24206.69;4994571;28;20720;-66
2023/04/07 10:36:19;;;;;;;8.55;4.53;;;;;;;14.01;nan;-24208.09;4983937;28;20217;-67
2023/04/07 10:39:06;;;;;;;6.32;4.45;;;;;;;14.22;nan;-24213.72;4995570;28;20267;-65
2023/04/07 10:41:40;;;;;;;7.18;4.68;;;;;;;14.16;nan;-24212.31;4988632;28;20193;-63
2023/04/07 10:44:07;;;;;;;8.40;5.07;;;;;;;13.66;nan;-24198.28;4981767;28;20243;-64
2023/04/07 10:46:44;;;;;;;8.00;4.55;;;;;;;14.22;nan;-24213.72;4987726;28;20581;-68
2023/04/07 10:49:12;;;;;;;8.00;4.75;;;;;;;14.02;nan;-24208.38;4982171;28;20250;-66
2023/04/07 10:51:38;;;;;;;6.47;4.40;;;;;;;14.12;nan;-24211.19;4985696;28;20174;-66
2023/04/07 10:54:32;;;;;;;7.15;4.72;;;;;;;14.39;nan;-24218.63;4981974;28;20642;-66
2023/04/07 10:57:17;;;;;;;7.45;4.60;;;;;;;13.96;nan;-24206.56;4975603;28;20196;-65
2023/04/07 11:00:08;;;;;;;9.32;4.82;;;;;;;14.32;nan;-24216.50;4990638;28;20287;-68
2023/04/07 11:02:34;;;;;;;6.35;4.38;;;;;;;14.37;nan;-24217.94;4985142;28;20347;-67
2023/04/07 11:05:01;;;;;;;8.93;5.20;;;;;;;13.75;nan;-24200.81;4988835;28;20205;-63
2023/04/07 11:07:52;;;;;;;9.07;4.75;;;;;;;13.32;nan;-24188.72;4982621;28;20680;-68
2023/04/07 11:10:18;;;;;;;8.68;4.70;;;;;;;13.20;nan;-24185.63;4986843;28;20235;-65
2023/04/07 11:12:43;;;;;;;8.57;5.05;;;;;;;12.97;nan;-24179.16;4980843;28;20268;-65
2023/04/07 11:15:20;;;;;;;9.90;5.00;;;;;;;12.94;nan;-24178.31;4991785;28;20192;-66
2023/04/07 11:17:46;;;;;;;11.75;4.65;;;;;;;12.74;nan;-24172.84;4994652;28;20172;-66
2023/04/07 11:20:11;;;;;;;8.18;4.72;;;;;;;12.87;nan;-24176.34;4995302;28;20312;-64
2023/04/07 11:22:37;;;;;;;8.77;5.07;;;;;;;13.41;nan;-24191.38;4995021;28;20399;-63
2023/04/07 11:25:02;;;;;;;8.82;5.03;;;;;;;13.27;nan;-24187.47;4999119;28;20677;-68
2023/04/07 11:27:28;;;;;;;7.68;4.88;;;;;;;13.30;nan;-24188.31;4994694;28;20174;-67
2023/04/07 11:29:54;;;;;;;9.70;5.10;;;;;;;13.09;nan;-24182.53;4994597;28;20292;-64
2023/04/07 11:32:28;;;;;;;9.63;4.97;;;;;;;12.89;nan;-24176.91;4994485;28;20264;-65
2023/04/07 11:34:54;;;;;;;9.32;5.30;;;;;;;12.85;nan;-24175.78;4995008;28;20172;-65
2023/04/07 11:37:26;;;;;;;7.47;4.35;;;;;;;13.01;nan;-24180.28;4994470;28;20176;-65
2023/04/07 11:39:56;;;;;;;8.98;5.40;;;;;;;13.41;nan;-24191.25;4994310;28;20184;-67
2023/04/07 11:42:38;;;;;;;8.30;5.35;;;;;;;13.69;nan;-24199.25;4994187;28;20189;-65
2023/04/07 11:45:05;;;;;;;9.02;5.05;;;;;;;13.75;nan;-24200.66;4993128;28;20211;-64